Bob Baker Memorial Airport Kiana US
ICAO: PAIK
IATA:
Category: Medium
Scheduled Services:

Elevation: 166 ft
TransAlt. 18000 ft.

Airport Communications:
ANCHORAGE CNTR:119.2
CTAF:122.7

PAIK Zoom In..

If you have problems with the map follow the link
https://www.worldairports.se/pages/airport.php?
ICAO=PAIK

Runways:

(A) RW 06 length 3400 ft width 100 ft
---- / hdg 64

(B) RW 24 length 3400 ft width 100 ft
---- / hdg 244

Location; PAIK
Day. 22 / Time. 11.56 Zulu
* Altimeter: 29.60
* Temperature: -08° c. -17.6°f.
* Wind from: 000° Speed 00 kn.
Dewpoint: -09° c.
Visibility: 10 Statute Miles.
Clouds: Overcast 3800 ft.

PAIK 221156Z AUTO 00000KT 10SM OVC038 M08/M09 A2960 RMK AO2 SLP027 T10831094 11061 21083 51004 FZRANO


Wind - Calm.

 
 
jpsmedia.com for Web Design worldairports.se 2018   terms of use